Terminal Aerodrome Forecast
Issued by NWS

Home | Current Version | Previous Version | Text Only | Print | Product List | Glossary On
Versions: 1 2 3 4 5 6 7 8 9 10 11 12 13
409
FTUS45 KABQ 220520
TAFGUP
TAF
KGUP 220520Z 2206/2306 16008KT P6SM VCSH BKN080
     FM220800 VRB06KT P6SM BKN100
     FM221500 VRB06KT P6SM SCT120
     FM221900 06007KT P6SM VCTS SCT070CB SCT150
      TEMPO 2221/2224 VRB25G35KT BKN060CB=

USA.gov is the U.S. government's official web portal to all federal, state and local government web resources and services.